• Join FlightAware (Why Join?)
  • Login
  • US Flag 
11:32AM EST


 

Airport Tracker/Info


-or-


 

Live Flight TrackerFlight Track Log ✈ DAL3982 ✈ 27-Apr-2014 ✈ KDSM - KDTW

Flight Track Log - Related Links

Times and Time Zones

All times are in EDT time to prevent confusion due to time zone crossing. See the DAL3982 flight status page for this flight to view local times or setup timezone preferences in your user account.

Time Position Orientation Groundspeed Altitude Reporting Facility
EDT Latitude Longitude Course Direction KTS MPH feet Rate Location/Type
11:33AM 41.5342 -93.6392 132° Southeast 167 192 1,300  Level Minneapolis Center
11:33AM 41.5172 -93.6144 115° Southeast 160 184 2,700 2,040 Climbing Minneapolis Center
11:34AM 41.5203 -93.5422 87° East 236 272 4,500 1,560 Climbing Minneapolis Center
11:35AM 41.5222 -93.5150 85° East 240 276 5,000 2,340 Climbing Minneapolis Center
11:36AM 41.5569 -93.4103 66° East 285 328 7,900 2,340 Climbing Minneapolis Center
11:37AM 41.5886 -93.3136 66° East 284 327 9,800 1,740 Climbing Minneapolis Center
11:38AM 41.6208 -93.2169 66° East 300 345 11,500 1,620 Climbing Minneapolis Center
11:39AM 41.6567 -93.1075 66° East 315 362 13,200 1,320 Climbing Minneapolis Center
11:40AM 41.6950 -92.9886 67° East 337 388 14,200 840 Climbing Minneapolis Center
11:41AM 41.7372 -92.8578 67° East 369 425 15,000 840 Climbing Minneapolis Center
11:42AM 41.7878 -92.7017 66° East 398 458 16,000 840 Climbing Minneapolis Center
11:43AM 41.8347 -92.5586 66° East 414 476 16,800 780 Climbing Minneapolis Center
11:44AM 41.8814 -92.4108 67° East 426 490 17,600 840 Climbing Minneapolis Center
11:45AM 41.9294 -92.2619 67° East 433 498 18,600 960 Climbing Minneapolis Center
11:46AM 41.9850 -92.0806 68° East 436 502 19,600 840 Climbing Minneapolis Center
11:47AM 42.0325 -91.9314 67° East 438 504 20,400 780 Climbing Minneapolis Center
11:48AM 42.0783 -91.7814 68° East 438 504 21,200 720 Climbing Minneapolis Center
11:49AM 42.1233 -91.6331 68° East 437 503 22,000 720 Climbing Minneapolis Center
11:50AM 42.1867 -91.4233 68° East 434 499 23,100 780 Climbing Chicago Center
11:51AM 42.2403 -91.2469 68° East 431 496 24,000 780 Climbing Chicago Center
11:52AM 42.2847 -91.1006 68° East 431 496 24,800 720 Climbing Chicago Center
11:54AM 42.3283 -90.9531 68° East 429 494 25,500 660 Climbing Chicago Center
11:55AM 42.3725 -90.8047 68° East 430 495 26,200 540 Climbing Chicago Center
11:56AM 42.4156 -90.6558 69° East 432 497 26,700 480 Climbing Chicago Center
11:57AM 42.4614 -90.5061 67° East 432 497 27,200 480 Climbing Chicago Center
11:58AM 42.5086 -90.3550 67° East 438 504 27,700 540 Climbing Chicago Center
11:59AM 42.5639 -90.1736 67° East 438 504 28,400 540 Climbing Chicago Center
12:00PM 42.6097 -90.0194 68° East 440 506 28,900 240 Climbing Chicago Center
12:01PM 42.6603 -89.8544 67° East 441 507 29,000  Climbing Chicago Center
12:02PM 42.7078 -89.6958 68° East 448 516 29,000  Level Chicago Center
12:03PM 42.7550 -89.5361 68° East 453 521 29,000  Level Chicago Center
12:04PM 42.8025 -89.3733 68° East 461 531 29,000  Level Chicago Center
12:05PM 42.8514 -89.2089 68° East 466 536 29,000  Level Chicago Center
12:06PM 42.8994 -89.0436 68° East 470 541 29,000  Level Chicago Center
12:07PM 42.9475 -88.8769 68° East 474 545 29,000  Level Chicago Center
12:08PM 43.0053 -88.6781 68° East 475 547 29,000  Level Chicago Center
12:09PM 43.0528 -88.5075 69° East 479 551 29,000  Level Chicago Center
12:10PM 43.1019 -88.3394 68° East 480 552 29,000  Level Chicago Center
12:11PM 43.1311 -88.1614 77° East 485 558 29,000  Level Chicago Center
12:12PM 43.1542 -87.9825 80° East 484 557 29,000  Level Chicago Center
12:13PM 43.1767 -87.8036 80° East 483 556 29,000  Level Chicago Center
12:14PM 43.2028 -87.5872 81° East 482 555 29,000  Level Chicago Center
12:15PM 43.2242 -87.4058 81° East 484 557 29,000  Level Chicago Center
12:16PM 43.2431 -87.2461 81° East 485 558 29,000  Level Chicago Center
12:18PM 43.2867 -86.8444 77° East 484 557 29,000  Level Chicago Center
12:19PM 43.2825 -86.6583 92° East 490 564 29,000  Level Chicago Center
12:20PM 43.2789 -86.4731 91° East 487 560 29,000 -60 Level Chicago Center
12:21PM 43.2756 -86.2878 91° East 485 558 28,900 -600 Descending Chicago Center
12:22PM 43.2722 -86.0997 91° East 489 563 27,800 -1,080 Descending Chicago Center
12:23PM 43.2678 -85.9156 92° East 483 556 26,800 -1,020 Descending Chicago Center
12:24PM 43.2625 -85.7342 92° East 473 544 25,800 -1,020 Descending Chicago Center
12:25PM 43.2572 -85.5486 92° East 476 548 24,800 -1,080 Descending Chicago Center
12:26PM 43.2525 -85.3619 92° East 486 559 23,600 -900 Descending Chicago Center
12:27PM 43.2425 -85.1850 94° East 471 542 23,000 -300 Descending Chicago Center
12:28PM 43.2047 -84.9867 105° East 447 514 23,000  Level Chicago Center
12:29PM 43.1739 -84.8231 104° East 445 512 23,000  Level Chicago Center
12:30PM 43.1439 -84.6572 104° East 446 513 23,000 -240 Level Chicago Center
12:31PM 43.1125 -84.4936 105° East 446 513 22,600 -900 Descending Chicago Center
12:33PM 43.0589 -84.3150 112° Southeast 428 493 21,100 -1,860 Descending Cleveland Center
12:34PM 43.0069 -84.1742 117° Southeast 419 482 18,600 -2,460 Descending Cleveland Center
12:34PM 42.9653 -84.0664 118° Southeast 406 467 16,900 -2,520 Descending Cleveland Center
12:35PM 42.9494 -84.0269 119° Southeast 402 463 16,200 -2,100 Descending Cleveland Center
12:36PM 42.9036 -83.9053 117° Southeast 400 460 14,000 -1,980 Descending Cleveland Center
12:37PM 42.8394 -83.7483 119° Southeast 396 456 12,000 -1,020 Descending Cleveland Center
12:38PM 42.7494 -83.6836 152° Southeast 366 421 12,000  Level Cleveland Center
12:39PM 42.6628 -83.6336 157° South 376 433 12,000  Level Cleveland Center
12:40PM 42.5489 -83.5661 156° South 385 443 12,000 -60 Level Cleveland Center
12:41PM 42.4572 -83.5097 156° South 384 442 11,900  Descending Cleveland Center
12:42PM 42.3742 -83.4672 159° South 294 338 12,000  Climbing Cleveland Center
12:43PM 42.2975 -83.4642 178° South 263 303 11,900 -840 Descending Cleveland Center
12:44PM 42.2356 -83.4981 202° Southwest 237 273 10,400 -1,560 Descending Cleveland Center
12:44PM 42.2344 -83.5000 232° Southwest 249 287 10,300 -1,920 Descending Cleveland Center
12:45PM 42.1647 -83.5389 202° Southwest 233 268 8,100 -2,400 Descending Cleveland Center
12:46PM 42.1181 -83.5800 213° Southwest 243 280 5,900 -2,280 Descending Cleveland Center
12:46PM 42.1164 -83.5817 217° Southwest 236 272 5,800 -1,500 Descending Cleveland Center
12:47PM 42.0606 -83.6167 205° Southwest 235 270 4,400 -1,560 Descending Cleveland Center
12:47PM 42.0514 -83.6072 143° Southeast 234 269 4,200 -1,200 Descending Cleveland Center
12:48PM 42.0344 -83.5481 111° Southeast 212 244 3,200 -1,080 Descending Cleveland Center
12:48PM 42.0394 -83.5364 60° Northeast 218 251 3,100 -240 Descending Cleveland Center
12:49PM 42.0686 -83.4883 51° Northeast 184 212 3,000 -120 Descending Cleveland Center
12:49PM 42.0750 -83.4797 45° Northeast 204 235 3,000 -240 Level Cleveland Center
12:50PM 42.1069 -83.4544 30° Northeast 157 181 2,800 -240 Descending Cleveland Center
12:50PM 42.1125 -83.4497 32° Northeast 168 193 2,800 -840 Level Cleveland Center
12:51PM 42.1492 -83.4239 28° Northeast 141 162 1,900 -900 Descending Cleveland Center
12:51PM 42.1489 -83.4225 105° East 158 182 1,900 -780 Level Cleveland Center
12:52PM 42.1806 -83.4000 28° Northeast 140 161 1,200 -900 Descending Cleveland Center
12:52PM 42.1897 -83.3931 29° Northeast 147 169 1,000 -300 Descending Cleveland Center
12:53PM 42.2228 -83.3697 28° Northeast 145 167 800 -240 Descending Cleveland Center